sensor_id;sensor_type;location;lat;lon;timestamp;temperature;humidity
75824;DHT22;64457;51.976;9.834;2023-01-16T00:01:48;8.70;94.70
75824;DHT22;64457;51.976;9.834;2023-01-16T00:04:16;8.80;94.90
75824;DHT22;64457;51.976;9.834;2023-01-16T00:06:44;8.90;94.80
75824;DHT22;64457;51.976;9.834;2023-01-16T00:09:12;8.90;94.60
75824;DHT22;64457;51.976;9.834;2023-01-16T00:11:41;8.70;94.50
75824;DHT22;64457;51.976;9.834;2023-01-16T00:14:09;8.70;94.70
75824;DHT22;64457;51.976;9.834;2023-01-16T00:16:36;8.80;94.70
75824;DHT22;64457;51.976;9.834;2023-01-16T00:19:04;9.00;94.70
75824;DHT22;64457;51.976;9.834;2023-01-16T00:21:31;8.90;95.10
75824;DHT22;64457;51.976;9.834;2023-01-16T00:23:59;9.00;94.70
75824;DHT22;64457;51.976;9.834;2023-01-16T00:26:28;9.10;94.50
75824;DHT22;64457;51.976;9.834;2023-01-16T00:28:57;9.00;94.40
75824;DHT22;64457;51.976;9.834;2023-01-16T00:31:25;8.90;94.60
75824;DHT22;64457;51.976;9.834;2023-01-16T00:33:52;8.80;94.90
75824;DHT22;64457;51.976;9.834;2023-01-16T00:36:20;8.60;95.30
75824;DHT22;64457;51.976;9.834;2023-01-16T00:38:48;8.60;95.50
75824;DHT22;64457;51.976;9.834;2023-01-16T00:41:16;8.80;95.30
75824;DHT22;64457;51.976;9.834;2023-01-16T00:43:43;8.90;95.20
75824;DHT22;64457;51.976;9.834;2023-01-16T00:46:12;8.50;95.20
75824;DHT22;64457;51.976;9.834;2023-01-16T00:48:39;8.70;95.50
75824;DHT22;64457;51.976;9.834;2023-01-16T00:51:07;8.80;95.40
75824;DHT22;64457;51.976;9.834;2023-01-16T00:53:35;8.80;95.20
75824;DHT22;64457;51.976;9.834;2023-01-16T00:56:03;9.00;95.20
75824;DHT22;64457;51.976;9.834;2023-01-16T00:58:31;8.90;95.00
75824;DHT22;64457;51.976;9.834;2023-01-16T01:01:00;8.70;95.20
75824;DHT22;64457;51.976;9.834;2023-01-16T01:03:30;8.70;95.80
75824;DHT22;64457;51.976;9.834;2023-01-16T01:05:57;8.40;96.30
75824;DHT22;64457;51.976;9.834;2023-01-16T01:08:25;8.30;97.30
75824;DHT22;64457;51.976;9.834;2023-01-16T01:10:52;8.30;97.10
75824;DHT22;64457;51.976;9.834;2023-01-16T01:13:20;8.20;97.10
75824;DHT22;64457;51.976;9.834;2023-01-16T01:15:48;8.20;97.30
75824;DHT22;64457;51.976;9.834;2023-01-16T01:18:16;8.10;97.40
75824;DHT22;64457;51.976;9.834;2023-01-16T01:20:46;8.00;97.10
75824;DHT22;64457;51.976;9.834;2023-01-16T01:23:13;7.90;97.40
75824;DHT22;64457;51.976;9.834;2023-01-16T01:25:41;8.00;97.50
75824;DHT22;64457;51.976;9.834;2023-01-16T01:28:08;8.00;97.40
75824;DHT22;64457;51.976;9.834;2023-01-16T01:30:37;7.80;97.50
75824;DHT22;64457;51.976;9.834;2023-01-16T01:33:04;7.40;97.50
75824;DHT22;64457;51.976;9.834;2023-01-16T01:35:32;7.70;98.10
75824;DHT22;64457;51.976;9.834;2023-01-16T01:38:01;7.90;97.50
75824;DHT22;64457;51.976;9.834;2023-01-16T01:40:29;8.00;97.30
75824;DHT22;64457;51.976;9.834;2023-01-16T01:42:57;8.20;97.10
75824;DHT22;64457;51.976;9.834;2023-01-16T01:45:26;8.10;97.10
75824;DHT22;64457;51.976;9.834;2023-01-16T01:47:57;8.00;96.90
75824;DHT22;64457;51.976;9.834;2023-01-16T01:50:35;8.00;97.50
75824;DHT22;64457;51.976;9.834;2023-01-16T01:53:09;8.10;97.10
75824;DHT22;64457;51.976;9.834;2023-01-16T01:55:41;7.70;97.00
75824;DHT22;64457;51.976;9.834;2023-01-16T01:58:10;7.80;97.70
75824;DHT22;64457;51.976;9.834;2023-01-16T02:00:41;7.60;97.30
75824;DHT22;64457;51.976;9.834;2023-01-16T02:03:12;7.90;97.70
75824;DHT22;64457;51.976;9.834;2023-01-16T02:05:45;8.10;97.10
75824;DHT22;64457;51.976;9.834;2023-01-16T02:08:17;8.10;97.00
75824;DHT22;64457;51.976;9.834;2023-01-16T02:10:49;8.20;97.10
75824;DHT22;64457;51.976;9.834;2023-01-16T02:13:18;8.40;96.90
75824;DHT22;64457;51.976;9.834;2023-01-16T02:15:46;8.30;96.80
75824;DHT22;64457;51.976;9.834;2023-01-16T02:18:27;8.30;96.70
75824;DHT22;64457;51.976;9.834;2023-01-16T02:21:29;8.40;96.70
75824;DHT22;64457;51.976;9.834;2023-01-16T02:24:31;8.30;96.60
75824;DHT22;64457;51.976;9.834;2023-01-16T02:30:34;8.40;96.20
75824;DHT22;64457;51.976;9.834;2023-01-16T02:33:28;8.30;96.50
75824;DHT22;64457;51.976;9.834;2023-01-16T02:36:07;8.00;96.40
75824;DHT22;64457;51.976;9.834;2023-01-16T02:38:46;8.00;96.60
75824;DHT22;64457;51.976;9.834;2023-01-16T02:41:26;8.00;97.00
75824;DHT22;64457;51.976;9.834;2023-01-16T02:44:11;7.70;97.00
75824;DHT22;64457;51.976;9.834;2023-01-16T02:46:50;7.90;97.20
75824;DHT22;64457;51.976;9.834;2023-01-16T02:49:29;8.10;97.20
75824;DHT22;64457;51.976;9.834;2023-01-16T02:52:04;8.20;96.70
75824;DHT22;64457;51.976;9.834;2023-01-16T02:54:41;8.40;96.40
75824;DHT22;64457;51.976;9.834;2023-01-16T02:57:15;8.40;96.40
75824;DHT22;64457;51.976;9.834;2023-01-16T02:59:44;8.40;96.50
75824;DHT22;64457;51.976;9.834;2023-01-16T03:02:13;8.10;96.40
75824;DHT22;64457;51.976;9.834;2023-01-16T03:04:46;8.10;96.80
75824;DHT22;64457;51.976;9.834;2023-01-16T03:07:32;7.90;96.80
75824;DHT22;64457;51.976;9.834;2023-01-16T03:10:30;8.10;97.00
75824;DHT22;64457;51.976;9.834;2023-01-16T03:13:18;8.20;96.80
75824;DHT22;64457;51.976;9.834;2023-01-16T03:16:00;8.30;96.50
75824;DHT22;64457;51.976;9.834;2023-01-16T03:18:50;8.20;96.80
75824;DHT22;64457;51.976;9.834;2023-01-16T03:21:27;8.30;96.90
75824;DHT22;64457;51.976;9.834;2023-01-16T03:24:06;8.40;96.40
75824;DHT22;64457;51.976;9.834;2023-01-16T03:26:40;8.50;96.30
75824;DHT22;64457;51.976;9.834;2023-01-16T03:29:18;8.70;96.40
75824;DHT22;64457;51.976;9.834;2023-01-16T03:31:55;8.80;96.10
75824;DHT22;64457;51.976;9.834;2023-01-16T03:34:32;8.70;96.10
75824;DHT22;64457;51.976;9.834;2023-01-16T03:37:05;8.60;96.20
75824;DHT22;64457;51.976;9.834;2023-01-16T03:39:37;8.70;96.10
75824;DHT22;64457;51.976;9.834;2023-01-16T03:42:12;8.40;96.30
75824;DHT22;64457;51.976;9.834;2023-01-16T03:44:47;8.50;96.40
75824;DHT22;64457;51.976;9.834;2023-01-16T03:47:20;8.50;96.30
75824;DHT22;64457;51.976;9.834;2023-01-16T03:49:55;8.30;96.40
75824;DHT22;64457;51.976;9.834;2023-01-16T03:52:31;8.20;96.80
75824;DHT22;64457;51.976;9.834;2023-01-16T03:55:05;8.10;97.00
75824;DHT22;64457;51.976;9.834;2023-01-16T03:57:36;7.90;97.00
75824;DHT22;64457;51.976;9.834;2023-01-16T04:00:06;7.90;97.00
75824;DHT22;64457;51.976;9.834;2023-01-16T04:02:41;7.90;97.30
75824;DHT22;64457;51.976;9.834;2023-01-16T04:05:18;7.90;97.40
75824;DHT22;64457;51.976;9.834;2023-01-16T04:07:50;8.00;97.10
75824;DHT22;64457;51.976;9.834;2023-01-16T04:10:24;8.20;97.00
75824;DHT22;64457;51.976;9.834;2023-01-16T04:12:55;8.30;96.90
75824;DHT22;64457;51.976;9.834;2023-01-16T04:15:26;8.40;96.80
75824;DHT22;64457;51.976;9.834;2023-01-16T04:17:56;8.30;96.80
75824;DHT22;64457;51.976;9.834;2023-01-16T04:20:27;8.30;96.90
75824;DHT22;64457;51.976;9.834;2023-01-16T04:22:55;8.10;97.10
75824;DHT22;64457;51.976;9.834;2023-01-16T04:25:23;8.10;97.10
75824;DHT22;64457;51.976;9.834;2023-01-16T04:27:50;8.30;97.20
75824;DHT22;64457;51.976;9.834;2023-01-16T04:30:18;8.20;96.80
75824;DHT22;64457;51.976;9.834;2023-01-16T04:32:46;8.30;96.80
75824;DHT22;64457;51.976;9.834;2023-01-16T04:35:14;8.40;96.80
75824;DHT22;64457;51.976;9.834;2023-01-16T04:37:43;8.30;96.70
75824;DHT22;64457;51.976;9.834;2023-01-16T04:40:11;8.10;96.90
75824;DHT22;64457;51.976;9.834;2023-01-16T04:42:38;8.20;97.00
75824;DHT22;64457;51.976;9.834;2023-01-16T04:45:07;8.20;97.00
75824;DHT22;64457;51.976;9.834;2023-01-16T04:47:35;8.30;96.70
75824;DHT22;64457;51.976;9.834;2023-01-16T04:50:03;8.30;96.80
75824;DHT22;64457;51.976;9.834;2023-01-16T04:52:32;8.10;96.80
75824;DHT22;64457;51.976;9.834;2023-01-16T04:55:01;8.20;96.90
75824;DHT22;64457;51.976;9.834;2023-01-16T04:57:29;8.00;96.70
75824;DHT22;64457;51.976;9.834;2023-01-16T04:59:56;7.90;97.10
75824;DHT22;64457;51.976;9.834;2023-01-16T05:02:24;7.80;97.30
75824;DHT22;64457;51.976;9.834;2023-01-16T05:04:51;7.80;97.50
75824;DHT22;64457;51.976;9.834;2023-01-16T05:07:19;7.70;97.10
75824;DHT22;64457;51.976;9.834;2023-01-16T05:09:46;7.20;98.30
75824;DHT22;64457;51.976;9.834;2023-01-16T05:12:15;7.20;99.00
75824;DHT22;64457;51.976;9.834;2023-01-16T05:14:43;7.40;99.60
75824;DHT22;64457;51.976;9.834;2023-01-16T05:17:10;7.70;99.40
75824;DHT22;64457;51.976;9.834;2023-01-16T05:19:38;7.70;99.40
75824;DHT22;64457;51.976;9.834;2023-01-16T05:22:06;7.80;99.50
75824;DHT22;64457;51.976;9.834;2023-01-16T05:24:34;7.90;99.50
75824;DHT22;64457;51.976;9.834;2023-01-16T05:27:01;7.90;99.50
75824;DHT22;64457;51.976;9.834;2023-01-16T05:29:30;7.60;99.60
75824;DHT22;64457;51.976;9.834;2023-01-16T05:31:57;7.70;99.90
75824;DHT22;64457;51.976;9.834;2023-01-16T05:34:25;7.70;99.90
75824;DHT22;64457;51.976;9.834;2023-01-16T05:36:53;7.70;99.90
75824;DHT22;64457;51.976;9.834;2023-01-16T05:39:20;7.60;99.90
75824;DHT22;64457;51.976;9.834;2023-01-16T05:41:47;7.70;99.90
75824;DHT22;64457;51.976;9.834;2023-01-16T05:44:15;7.80;99.90
75824;DHT22;64457;51.976;9.834;2023-01-16T05:46:44;7.80;99.90
75824;DHT22;64457;51.976;9.834;2023-01-16T05:49:11;7.60;99.90
75824;DHT22;64457;51.976;9.834;2023-01-16T05:51:39;7.50;99.90
75824;DHT22;64457;51.976;9.834;2023-01-16T05:54:10;7.40;99.90
75824;DHT22;64457;51.976;9.834;2023-01-16T05:56:38;7.40;99.90
75824;DHT22;64457;51.976;9.834;2023-01-16T05:59:07;7.40;99.90
75824;DHT22;64457;51.976;9.834;2023-01-16T06:01:35;7.50;99.90
75824;DHT22;64457;51.976;9.834;2023-01-16T06:04:04;7.50;99.90
75824;DHT22;64457;51.976;9.834;2023-01-16T06:06:32;7.40;99.90
75824;DHT22;64457;51.976;9.834;2023-01-16T06:08:59;7.40;99.90
75824;DHT22;64457;51.976;9.834;2023-01-16T06:11:27;7.40;99.90
75824;DHT22;64457;51.976;9.834;2023-01-16T06:13:54;7.20;99.90
75824;DHT22;64457;51.976;9.834;2023-01-16T06:16:22;7.20;99.90
75824;DHT22;64457;51.976;9.834;2023-01-16T06:18:50;7.20;99.90
75824;DHT22;64457;51.976;9.834;2023-01-16T06:21:20;7.30;99.90
75824;DHT22;64457;51.976;9.834;2023-01-16T06:23:47;7.30;99.90
75824;DHT22;64457;51.976;9.834;2023-01-16T06:26:15;7.30;99.90
75824;DHT22;64457;51.976;9.834;2023-01-16T06:28:42;7.40;99.90
75824;DHT22;64457;51.976;9.834;2023-01-16T06:31:10;7.60;99.90
75824;DHT22;64457;51.976;9.834;2023-01-16T06:33:37;7.60;99.90
75824;DHT22;64457;51.976;9.834;2023-01-16T06:36:05;7.60;99.90
75824;DHT22;64457;51.976;9.834;2023-01-16T06:38:35;7.50;99.90
75824;DHT22;64457;51.976;9.834;2023-01-16T06:41:02;7.60;99.90
75824;DHT22;64457;51.976;9.834;2023-01-16T06:43:30;7.60;99.90
75824;DHT22;64457;51.976;9.834;2023-01-16T06:45:58;7.50;99.80
75824;DHT22;64457;51.976;9.834;2023-01-16T06:48:25;7.40;99.90
75824;DHT22;64457;51.976;9.834;2023-01-16T06:50:53;7.40;99.90
75824;DHT22;64457;51.976;9.834;2023-01-16T06:53:21;7.40;99.90
75824;DHT22;64457;51.976;9.834;2023-01-16T06:55:49;7.40;99.90
75824;DHT22;64457;51.976;9.834;2023-01-16T06:58:17;7.40;99.90
75824;DHT22;64457;51.976;9.834;2023-01-16T07:00:45;7.20;99.90
75824;DHT22;64457;51.976;9.834;2023-01-16T07:03:16;7.10;99.90
75824;DHT22;64457;51.976;9.834;2023-01-16T07:05:45;6.90;99.90
75824;DHT22;64457;51.976;9.834;2023-01-16T07:08:13;7.00;99.90
75824;DHT22;64457;51.976;9.834;2023-01-16T07:10:40;7.10;99.90
75824;DHT22;64457;51.976;9.834;2023-01-16T07:13:09;7.20;99.90
75824;DHT22;64457;51.976;9.834;2023-01-16T07:15:37;7.40;99.90
75824;DHT22;64457;51.976;9.834;2023-01-16T07:18:22;7.40;99.90
75824;DHT22;64457;51.976;9.834;2023-01-16T07:21:11;7.40;99.90
75824;DHT22;64457;51.976;9.834;2023-01-16T07:24:00;7.40;99.90
75824;DHT22;64457;51.976;9.834;2023-01-16T07:26:29;7.50;99.90
75824;DHT22;64457;51.976;9.834;2023-01-16T07:28:58;7.50;99.60
75824;DHT22;64457;51.976;9.834;2023-01-16T07:31:28;7.60;99.60
75824;DHT22;64457;51.976;9.834;2023-01-16T07:33:56;7.50;99.10
75824;DHT22;64457;51.976;9.834;2023-01-16T07:36:24;7.50;99.30
75824;DHT22;64457;51.976;9.834;2023-01-16T07:38:52;7.70;99.40
75824;DHT22;64457;51.976;9.834;2023-01-16T07:41:19;7.10;99.30
75824;DHT22;64457;51.976;9.834;2023-01-16T07:43:47;7.40;99.70
75824;DHT22;64457;51.976;9.834;2023-01-16T07:46:16;7.70;99.30
75824;DHT22;64457;51.976;9.834;2023-01-16T07:48:43;8.00;98.80
75824;DHT22;64457;51.976;9.834;2023-01-16T07:51:10;8.00;98.40
75824;DHT22;64457;51.976;9.834;2023-01-16T07:53:38;8.00;98.30
75824;DHT22;64457;51.976;9.834;2023-01-16T07:56:06;7.90;98.40
75824;DHT22;64457;51.976;9.834;2023-01-16T07:58:34;8.10;98.40
75824;DHT22;64457;51.976;9.834;2023-01-16T08:01:03;8.10;98.10
75824;DHT22;64457;51.976;9.834;2023-01-16T08:03:33;8.20;98.10
75824;DHT22;64457;51.976;9.834;2023-01-16T08:06:00;8.20;97.80
75824;DHT22;64457;51.976;9.834;2023-01-16T08:08:29;8.40;98.30
75824;DHT22;64457;51.976;9.834;2023-01-16T08:10:58;8.30;97.50
75824;DHT22;64457;51.976;9.834;2023-01-16T08:13:46;8.40;97.60
75824;DHT22;64457;51.976;9.834;2023-01-16T08:16:14;8.40;97.60
75824;DHT22;64457;51.976;9.834;2023-01-16T08:18:42;8.60;97.80
75824;DHT22;64457;51.976;9.834;2023-01-16T08:21:14;8.70;97.30
75824;DHT22;64457;51.976;9.834;2023-01-16T08:23:43;8.30;97.40
75824;DHT22;64457;51.976;9.834;2023-01-16T08:26:11;8.30;97.70
75824;DHT22;64457;51.976;9.834;2023-01-16T08:28:42;8.50;98.10
75824;DHT22;64457;51.976;9.834;2023-01-16T08:31:13;8.60;97.20
75824;DHT22;64457;51.976;9.834;2023-01-16T08:33:43;8.70;97.30
75824;DHT22;64457;51.976;9.834;2023-01-16T08:36:13;8.60;97.20
75824;DHT22;64457;51.976;9.834;2023-01-16T08:38:42;8.50;97.30
75824;DHT22;64457;51.976;9.834;2023-01-16T08:41:10;8.40;97.60
75824;DHT22;64457;51.976;9.834;2023-01-16T08:43:51;8.40;97.60
75824;DHT22;64457;51.976;9.834;2023-01-16T08:46:36;8.40;97.70
75824;DHT22;64457;51.976;9.834;2023-01-16T08:49:19;8.60;97.50
75824;DHT22;64457;51.976;9.834;2023-01-16T08:52:10;8.60;97.50
75824;DHT22;64457;51.976;9.834;2023-01-16T08:54:37;8.90;97.30
75824;DHT22;64457;51.976;9.834;2023-01-16T08:57:05;9.00;97.10
75824;DHT22;64457;51.976;9.834;2023-01-16T08:59:35;8.80;96.40
75824;DHT22;64457;51.976;9.834;2023-01-16T09:02:04;8.90;97.10
75824;DHT22;64457;51.976;9.834;2023-01-16T09:04:35;8.20;97.00
75824;DHT22;64457;51.976;9.834;2023-01-16T09:07:03;8.20;97.50
75824;DHT22;64457;51.976;9.834;2023-01-16T09:09:31;8.00;98.00
75824;DHT22;64457;51.976;9.834;2023-01-16T09:11:58;7.90;97.70
75824;DHT22;64457;51.976;9.834;2023-01-16T09:14:43;8.20;98.50
75824;DHT22;64457;51.976;9.834;2023-01-16T09:17:11;8.60;98.00
75824;DHT22;64457;51.976;9.834;2023-01-16T09:19:40;9.00;97.30
75824;DHT22;64457;51.976;9.834;2023-01-16T09:22:08;9.10;96.80
75824;DHT22;64457;51.976;9.834;2023-01-16T09:24:37;8.90;96.70
75824;DHT22;64457;51.976;9.834;2023-01-16T09:27:05;9.00;97.00
75824;DHT22;64457;51.976;9.834;2023-01-16T09:29:33;9.00;96.90
75824;DHT22;64457;51.976;9.834;2023-01-16T09:32:01;8.60;96.70
75824;DHT22;64457;51.976;9.834;2023-01-16T09:34:34;8.80;97.00
75824;DHT22;64457;51.976;9.834;2023-01-16T09:37:04;8.80;96.80
75824;DHT22;64457;51.976;9.834;2023-01-16T09:39:33;9.00;96.80
75824;DHT22;64457;51.976;9.834;2023-01-16T09:42:27;9.00;96.80
75824;DHT22;64457;51.976;9.834;2023-01-16T09:45:24;8.90;96.30
75824;DHT22;64457;51.976;9.834;2023-01-16T09:47:58;8.60;96.50
75824;DHT22;64457;51.976;9.834;2023-01-16T09:50:35;8.10;96.80
75824;DHT22;64457;51.976;9.834;2023-01-16T09:53:12;8.50;97.40
75824;DHT22;64457;51.976;9.834;2023-01-16T09:56:01;8.60;96.70
75824;DHT22;64457;51.976;9.834;2023-01-16T09:58:57;8.80;96.80
75824;DHT22;64457;51.976;9.834;2023-01-16T10:01:32;8.70;96.40
75824;DHT22;64457;51.976;9.834;2023-01-16T10:04:13;8.70;96.50
75824;DHT22;64457;51.976;9.834;2023-01-16T10:06:56;9.00;96.60
75824;DHT22;64457;51.976;9.834;2023-01-16T10:09:32;9.20;96.10
75824;DHT22;64457;51.976;9.834;2023-01-16T10:12:05;8.60;95.90
75824;DHT22;64457;51.976;9.834;2023-01-16T10:14:47;8.60;96.50
75824;DHT22;64457;51.976;9.834;2023-01-16T10:17:29;8.50;96.50
75824;DHT22;64457;51.976;9.834;2023-01-16T10:20:13;8.30;96.90
75824;DHT22;64457;51.976;9.834;2023-01-16T10:23:02;8.40;96.90
75824;DHT22;64457;51.976;9.834;2023-01-16T10:25:41;8.00;96.60
75824;DHT22;64457;51.976;9.834;2023-01-16T10:28:23;7.90;96.60
75824;DHT22;64457;51.976;9.834;2023-01-16T10:30:58;8.00;97.10
75824;DHT22;64457;51.976;9.834;2023-01-16T10:33:35;8.00;96.80
75824;DHT22;64457;51.976;9.834;2023-01-16T10:36:09;8.20;96.50
75824;DHT22;64457;51.976;9.834;2023-01-16T10:38:42;8.20;96.40
75824;DHT22;64457;51.976;9.834;2023-01-16T10:41:17;8.00;96.20
75824;DHT22;64457;51.976;9.834;2023-01-16T10:44:10;7.90;96.60
75824;DHT22;64457;51.976;9.834;2023-01-16T10:47:03;8.10;96.40
75824;DHT22;64457;51.976;9.834;2023-01-16T10:49:53;7.70;97.00
75824;DHT22;64457;51.976;9.834;2023-01-16T10:52:20;7.70;96.90
75824;DHT22;64457;51.976;9.834;2023-01-16T10:54:51;8.10;96.60
75824;DHT22;64457;51.976;9.834;2023-01-16T10:57:21;8.30;96.00
75824;DHT22;64457;51.976;9.834;2023-01-16T10:59:50;8.40;95.90
75824;DHT22;64457;51.976;9.834;2023-01-16T11:02:29;8.40;95.60
75824;DHT22;64457;51.976;9.834;2023-01-16T11:04:58;8.50;95.30
75824;DHT22;64457;51.976;9.834;2023-01-16T11:07:29;8.60;95.40
75824;DHT22;64457;51.976;9.834;2023-01-16T11:09:57;8.70;95.50
75824;DHT22;64457;51.976;9.834;2023-01-16T11:12:30;8.50;95.30
75824;DHT22;64457;51.976;9.834;2023-01-16T11:15:19;8.20;95.20
75824;DHT22;64457;51.976;9.834;2023-01-16T11:18:19;8.30;95.70
75824;DHT22;64457;51.976;9.834;2023-01-16T11:20:59;8.20;95.70
75824;DHT22;64457;51.976;9.834;2023-01-16T11:23:37;8.50;95.90
75824;DHT22;64457;51.976;9.834;2023-01-16T11:26:06;8.50;95.30
75824;DHT22;64457;51.976;9.834;2023-01-16T11:28:36;8.20;95.70
75824;DHT22;64457;51.976;9.834;2023-01-16T11:31:12;8.40;96.30
75824;DHT22;64457;51.976;9.834;2023-01-16T11:33:44;8.70;95.70
75824;DHT22;64457;51.976;9.834;2023-01-16T11:36:16;8.60;95.40
75824;DHT22;64457;51.976;9.834;2023-01-16T11:38:46;8.60;95.90
75824;DHT22;64457;51.976;9.834;2023-01-16T11:41:18;8.40;96.30
75824;DHT22;64457;51.976;9.834;2023-01-16T11:44:05;8.50;96.20
75824;DHT22;64457;51.976;9.834;2023-01-16T11:46:58;8.80;95.50
75824;DHT22;64457;51.976;9.834;2023-01-16T11:49:32;9.10;95.50
75824;DHT22;64457;51.976;9.834;2023-01-16T11:52:01;9.00;94.90
75824;DHT22;64457;51.976;9.834;2023-01-16T11:54:32;8.70;95.60
75824;DHT22;64457;51.976;9.834;2023-01-16T11:57:12;8.70;96.40
75824;DHT22;64457;51.976;9.834;2023-01-16T12:03:27;8.00;97.70
75824;DHT22;64457;51.976;9.834;2023-01-16T12:06:21;8.30;98.00
75824;DHT22;64457;51.976;9.834;2023-01-16T12:09:12;8.40;97.40
75824;DHT22;64457;51.976;9.834;2023-01-16T12:12:18;8.70;97.30
75824;DHT22;64457;51.976;9.834;2023-01-16T12:15:15;8.70;96.80
75824;DHT22;64457;51.976;9.834;2023-01-16T12:18:12;8.40;96.70
75824;DHT22;64457;51.976;9.834;2023-01-16T12:20:52;8.40;96.90
75824;DHT22;64457;51.976;9.834;2023-01-16T12:23:32;8.50;96.40
75824;DHT22;64457;51.976;9.834;2023-01-16T12:26:15;8.50;96.30
75824;DHT22;64457;51.976;9.834;2023-01-16T12:28:59;8.70;96.30
75824;DHT22;64457;51.976;9.834;2023-01-16T12:31:53;9.00;96.30
75824;DHT22;64457;51.976;9.834;2023-01-16T12:34:45;9.30;95.60
75824;DHT22;64457;51.976;9.834;2023-01-16T12:37:46;9.50;94.90
75824;DHT22;64457;51.976;9.834;2023-01-16T12:40:30;9.60;95.00
75824;DHT22;64457;51.976;9.834;2023-01-16T12:43:13;9.40;94.90
75824;DHT22;64457;51.976;9.834;2023-01-16T12:45:49;9.50;94.90
75824;DHT22;64457;51.976;9.834;2023-01-16T12:48:37;9.60;94.60
75824;DHT22;64457;51.976;9.834;2023-01-16T12:51:32;9.20;94.90
75824;DHT22;64457;51.976;9.834;2023-01-16T12:54:26;9.40;94.90
75824;DHT22;64457;51.976;9.834;2023-01-16T12:57:15;9.60;94.60
75824;DHT22;64457;51.976;9.834;2023-01-16T12:59:51;9.30;94.80
75824;DHT22;64457;51.976;9.834;2023-01-16T13:02:31;8.80;94.70
75824;DHT22;64457;51.976;9.834;2023-01-16T13:05:05;9.10;95.70
75824;DHT22;64457;51.976;9.834;2023-01-16T13:07:46;9.30;95.30
75824;DHT22;64457;51.976;9.834;2023-01-16T13:10:19;9.30;94.90
75824;DHT22;64457;51.976;9.834;2023-01-16T13:13:12;9.30;94.50
75824;DHT22;64457;51.976;9.834;2023-01-16T13:15:58;9.10;94.70
75824;DHT22;64457;51.976;9.834;2023-01-16T13:18:34;9.10;94.90
75824;DHT22;64457;51.976;9.834;2023-01-16T13:21:08;9.40;94.70
75824;DHT22;64457;51.976;9.834;2023-01-16T13:23:46;9.00;94.40
75824;DHT22;64457;51.976;9.834;2023-01-16T13:26:16;9.00;94.70
75824;DHT22;64457;51.976;9.834;2023-01-16T13:28:50;9.10;94.40
75824;DHT22;64457;51.976;9.834;2023-01-16T13:31:28;9.00;94.80
75824;DHT22;64457;51.976;9.834;2023-01-16T13:34:03;9.00;94.90
75824;DHT22;64457;51.976;9.834;2023-01-16T13:43:33;8.80;95.10
75824;DHT22;64457;51.976;9.834;2023-01-16T13:46:20;8.80;95.40
75824;DHT22;64457;51.976;9.834;2023-01-16T13:48:52;8.80;95.30
75824;DHT22;64457;51.976;9.834;2023-01-16T13:51:21;8.90;95.60
75824;DHT22;64457;51.976;9.834;2023-01-16T13:53:54;8.60;95.70
75824;DHT22;64457;51.976;9.834;2023-01-16T13:56:26;8.50;96.20
75824;DHT22;64457;51.976;9.834;2023-01-16T13:58:59;8.00;96.60
75824;DHT22;64457;51.976;9.834;2023-01-16T14:01:35;7.90;97.10
75824;DHT22;64457;51.976;9.834;2023-01-16T14:04:27;7.80;97.30
75824;DHT22;64457;51.976;9.834;2023-01-16T14:07:00;7.90;97.00
75824;DHT22;64457;51.976;9.834;2023-01-16T14:09:58;7.70;97.10
75824;DHT22;64457;51.976;9.834;2023-01-16T14:12:34;7.70;97.10
75824;DHT22;64457;51.976;9.834;2023-01-16T14:15:23;7.70;97.50
75824;DHT22;64457;51.976;9.834;2023-01-16T14:18:17;7.70;97.60
75824;DHT22;64457;51.976;9.834;2023-01-16T14:20:52;7.70;97.60
75824;DHT22;64457;51.976;9.834;2023-01-16T14:23:30;7.60;97.30
75824;DHT22;64457;51.976;9.834;2023-01-16T14:26:22;7.60;97.40
75824;DHT22;64457;51.976;9.834;2023-01-16T14:28:56;7.60;97.80
75824;DHT22;64457;51.976;9.834;2023-01-16T14:31:28;7.90;97.30
75824;DHT22;64457;51.976;9.834;2023-01-16T14:34:03;7.70;96.90
75824;DHT22;64457;51.976;9.834;2023-01-16T14:36:33;7.50;96.90
75824;DHT22;64457;51.976;9.834;2023-01-16T14:39:01;7.70;97.20
75824;DHT22;64457;51.976;9.834;2023-01-16T14:41:31;7.80;97.20
75824;DHT22;64457;51.976;9.834;2023-01-16T14:44:18;8.00;96.70
75824;DHT22;64457;51.976;9.834;2023-01-16T14:47:24;7.80;96.90
75824;DHT22;64457;51.976;9.834;2023-01-16T14:50:11;7.70;97.10
75824;DHT22;64457;51.976;9.834;2023-01-16T14:53:20;7.90;96.70
75824;DHT22;64457;51.976;9.834;2023-01-16T14:56:10;8.10;96.80
75824;DHT22;64457;51.976;9.834;2023-01-16T14:58:44;7.60;96.60
75824;DHT22;64457;51.976;9.834;2023-01-16T15:01:20;7.60;96.80
75824;DHT22;64457;51.976;9.834;2023-01-16T15:04:11;7.60;97.20
75824;DHT22;64457;51.976;9.834;2023-01-16T15:06:43;7.60;97.40
75824;DHT22;64457;51.976;9.834;2023-01-16T15:09:15;7.50;97.20
75824;DHT22;64457;51.976;9.834;2023-01-16T15:11:49;7.40;97.30
75824;DHT22;64457;51.976;9.834;2023-01-16T15:14:20;7.30;97.70
75824;DHT22;64457;51.976;9.834;2023-01-16T15:17:00;7.60;97.50
75824;DHT22;64457;51.976;9.834;2023-01-16T15:20:09;7.90;97.50
75824;DHT22;64457;51.976;9.834;2023-01-16T15:23:01;7.50;97.60
75824;DHT22;64457;51.976;9.834;2023-01-16T15:25:42;7.40;97.60
75824;DHT22;64457;51.976;9.834;2023-01-16T15:28:33;7.10;97.70
75824;DHT22;64457;51.976;9.834;2023-01-16T15:31:10;7.10;97.90
75824;DHT22;64457;51.976;9.834;2023-01-16T15:33:42;6.80;98.10
75824;DHT22;64457;51.976;9.834;2023-01-16T15:36:43;7.00;98.60
75824;DHT22;64457;51.976;9.834;2023-01-16T15:39:18;6.90;98.00
75824;DHT22;64457;51.976;9.834;2023-01-16T15:41:54;7.20;97.60
75824;DHT22;64457;51.976;9.834;2023-01-16T15:44:51;7.50;97.50
75824;DHT22;64457;51.976;9.834;2023-01-16T15:48:04;7.60;96.90
75824;DHT22;64457;51.976;9.834;2023-01-16T15:50:53;7.70;96.70
75824;DHT22;64457;51.976;9.834;2023-01-16T15:53:25;7.90;96.40
75824;DHT22;64457;51.976;9.834;2023-01-16T15:56:00;7.50;96.20
75824;DHT22;64457;51.976;9.834;2023-01-16T15:58:30;7.60;96.60
75824;DHT22;64457;51.976;9.834;2023-01-16T16:00:58;7.40;96.90
75824;DHT22;64457;51.976;9.834;2023-01-16T16:03:30;7.40;96.60
75824;DHT22;64457;51.976;9.834;2023-01-16T16:06:06;7.60;96.50
75824;DHT22;64457;51.976;9.834;2023-01-16T16:08:39;7.70;96.30
75824;DHT22;64457;51.976;9.834;2023-01-16T16:11:16;7.60;96.10
75824;DHT22;64457;51.976;9.834;2023-01-16T16:14:02;7.60;96.20
75824;DHT22;64457;51.976;9.834;2023-01-16T16:17:01;7.40;96.40
75824;DHT22;64457;51.976;9.834;2023-01-16T16:19:46;7.50;96.40
75824;DHT22;64457;51.976;9.834;2023-01-16T16:22:16;7.40;95.90
75824;DHT22;64457;51.976;9.834;2023-01-16T16:25:26;7.50;96.10
75824;DHT22;64457;51.976;9.834;2023-01-16T16:27:57;7.40;96.20
75824;DHT22;64457;51.976;9.834;2023-01-16T16:30:26;7.20;95.90
75824;DHT22;64457;51.976;9.834;2023-01-16T16:32:54;7.20;96.50
75824;DHT22;64457;51.976;9.834;2023-01-16T16:35:27;7.30;96.20
75824;DHT22;64457;51.976;9.834;2023-01-16T16:37:58;7.50;96.00
75824;DHT22;64457;51.976;9.834;2023-01-16T16:40:28;7.50;96.10
75824;DHT22;64457;51.976;9.834;2023-01-16T16:42:56;7.30;95.60
75824;DHT22;64457;51.976;9.834;2023-01-16T16:45:31;7.20;95.80
75824;DHT22;64457;51.976;9.834;2023-01-16T16:48:25;7.40;96.00